Terminal Aerodrome Forecast
Issued by NWS

Home | Current Version | Previous Version | Text Only | Print | Product List | Glossary On
Versions: 1 2 3 4 5 6 7 8 9 10 11 12
000
FTUS44 KOUN 241738
TAFPNC
TAF
KPNC 241738Z 2418/2518 17014KT P6SM VCTS SCT030CB BKN080
      TEMPO 2418/2419 VRB18G28KT SHRA SCT030 BKN080
     FM241900 14012KT P6SM VCSH SCT035 BKN080
     FM250100 35014G24KT P6SM BKN080
     FM250700 34014G20KT P6SM BKN025
     FM251500 34013KT P6SM SKC=

USA.gov is the U.S. government's official web portal to all federal, state and local government web resources and services.